Time,TemperatureF,DewpointF,PressureIn,WindDirection,WindDirectionDegrees,WindSpeedMPH,WindSpeedGustMPH,Humidity,HourlyPrecipIn,Conditions,Clouds,dailyrainin,SolarRadiationWatts/m^2,SoftwareType,DateUTC
2013-02-16 00:03:00,21.4,10.0,30.45,NNW,328,7.0,31.0,61,0.00,,,0.00,0.0,meteohub,2013-02-16 07:03:00,
2013-02-16 00:08:00,21.7,10.0,30.46,NNW,328,8.0,31.0,60,0.00,,,0.00,0.0,meteohub,2013-02-16 07:08:00,
2013-02-16 00:13:00,21.2,10.2,30.45,North,353,7.0,25.0,62,0.00,,,0.00,0.0,meteohub,2013-02-16 07:13:00,
2013-02-16 00:18:00,20.8,10.2,30.45,North,6,9.0,32.0,63,0.00,,,0.00,0.0,meteohub,2013-02-16 07:18:00,
2013-02-16 00:24:00,20.8,10.2,30.44,NE,45,7.0,32.0,63,0.00,,,0.00,0.0,meteohub,2013-02-16 07:24:00,
2013-02-16 00:29:00,20.8,10.2,30.44,North,10,7.0,32.0,63,0.00,,,0.00,0.0,meteohub,2013-02-16 07:29:00,
2013-02-16 00:34:00,20.8,10.2,30.44,NNW,339,9.0,30.0,63,0.00,,,0.00,0.0,meteohub,2013-02-16 07:34:00,
2013-02-16 00:39:00,20.8,9.9,30.44,NNW,333,9.0,36.0,62,0.00,,,0.00,0.0,meteohub,2013-02-16 07:39:00,
2013-02-16 00:45:00,20.8,9.9,30.45,East,80,15.0,36.0,62,0.00,,,0.00,0.0,meteohub,2013-02-16 07:45:00,
2013-02-16 00:50:00,20.7,10.0,30.44,North,-999,-999.0,36.0,63,0.00,,,0.00,0.0,meteohub,2013-02-16 07:50:00,
2013-02-16 00:55:00,20.5,9.9,30.44,NW,320,12.0,23.0,63,0.00,,,0.00,0.0,meteohub,2013-02-16 07:55:00,
2013-02-16 01:00:00,20.7,10.0,30.46,NE,56,16.0,23.0,63,0.00,,,0.00,0.0,meteohub,2013-02-16 08:00:00,
2013-02-16 01:05:00,20.7,10.0,30.46,NNE,30,11.0,29.0,63,0.00,,,0.00,0.0,meteohub,2013-02-16 08:05:00,
2013-02-16 01:11:00,20.5,9.9,30.46,NNW,337,20.0,29.0,63,0.00,,,0.00,0.0,meteohub,2013-02-16 08:11:00,
2013-02-16 01:16:00,20.5,9.9,30.47,NE,39,12.0,29.0,63,0.00,,,0.00,0.0,meteohub,2013-02-16 08:16:00,
2013-02-16 01:21:00,20.7,10.0,30.46,NNE,25,14.0,27.0,63,0.00,,,0.00,0.0,meteohub,2013-02-16 08:21:00,
2013-02-16 01:26:00,20.7,10.0,30.47,NW,306,13.0,27.0,63,0.00,,,0.00,0.0,meteohub,2013-02-16 08:26:00,
2013-02-16 01:31:00,20.5,9.9,30.46,North,354,9.0,25.0,63,0.00,,,0.00,0.0,meteohub,2013-02-16 08:31:00,
2013-02-16 01:37:00,20.5,9.9,30.47,NW,311,15.0,27.0,63,0.00,,,0.00,0.0,meteohub,2013-02-16 08:37:00,
2013-02-16 01:42:00,20.5,9.9,30.48,NNW,330,13.0,27.0,63,0.00,,,0.00,0.0,meteohub,2013-02-16 08:42:00,
2013-02-16 01:47:00,20.5,9.9,30.47,NW,318,12.0,30.0,63,0.00,,,0.00,0.0,meteohub,2013-02-16 08:47:00,
2013-02-16 01:52:00,20.7,9.7,30.48,WNW,302,14.0,30.0,62,0.00,,,0.00,0.0,meteohub,2013-02-16 08:52:00,
2013-02-16 01:57:00,20.7,9.7,30.48,NNE,15,13.0,30.0,62,0.00,,,0.00,0.0,meteohub,2013-02-16 08:57:00,
2013-02-16 02:03:00,20.7,9.7,30.48,NNW,329,10.0,28.0,62,0.00,,,0.00,0.0,meteohub,2013-02-16 09:03:00,
2013-02-16 02:08:00,20.7,9.7,30.47,NNW,334,13.0,29.0,62,0.00,,,0.00,0.0,meteohub,2013-02-16 09:08:00,
2013-02-16 02:13:00,20.7,9.7,30.47,NW,316,15.0,29.0,62,0.00,,,0.00,0.0,meteohub,2013-02-16 09:13:00,
2013-02-16 02:18:00,20.7,9.7,30.47,WNW,299,10.0,31.0,62,0.00,,,0.00,0.0,meteohub,2013-02-16 09:18:00,
2013-02-16 02:23:00,20.7,9.3,30.47,NNE,18,13.0,31.0,61,0.00,,,0.00,0.0,meteohub,2013-02-16 09:23:00,
2013-02-16 02:29:00,20.7,9.3,30.48,NNW,328,9.0,31.0,61,0.00,,,0.00,0.0,meteohub,2013-02-16 09:29:00,
2013-02-16 02:34:00,20.7,9.3,30.47,NNW,348,7.0,27.0,61,0.00,,,0.00,0.0,meteohub,2013-02-16 09:34:00,
2013-02-16 02:39:00,20.7,9.3,30.46,NNW,337,4.0,26.0,61,0.00,,,0.00,0.0,meteohub,2013-02-16 09:39:00,
2013-02-16 02:44:00,20.5,8.8,30.46,NNW,337,27.0,27.0,60,0.00,,,0.00,0.0,meteohub,2013-02-16 09:44:00,
2013-02-16 02:50:00,20.7,9.0,30.45,NNW,341,8.0,27.0,60,0.00,,,0.00,0.0,meteohub,2013-02-16 09:50:00,
2013-02-16 02:55:00,20.7,8.6,30.44,NW,306,14.0,34.0,59,0.00,,,0.00,0.0,meteohub,2013-02-16 09:55:00,
2013-02-16 03:00:00,20.8,8.8,30.45,NW,306,20.0,34.0,59,0.00,,,0.00,0.0,meteohub,2013-02-16 10:00:00,
2013-02-16 03:05:00,20.8,8.4,30.44,NW,310,14.0,34.0,58,0.00,,,0.00,0.0,meteohub,2013-02-16 10:05:00,
2013-02-16 03:10:00,20.8,8.1,30.44,NNW,340,24.0,34.0,57,0.00,,,0.00,0.0,meteohub,2013-02-16 10:10:00,
2013-02-16 03:16:00,20.8,8.1,30.45,NW,324,14.0,34.0,57,0.00,,,0.00,0.0,meteohub,2013-02-16 10:16:00,
2013-02-16 03:21:00,20.8,8.1,30.44,WNW,300,15.0,33.0,57,0.00,,,0.00,0.0,meteohub,2013-02-16 10:21:00,
2013-02-16 03:26:00,20.8,8.1,30.44,WNW,303,10.0,28.0,57,0.00,,,0.00,0.0,meteohub,2013-02-16 10:26:00,
2013-02-16 03:31:00,20.8,8.1,30.44,North,349,12.0,28.0,57,0.00,,,0.00,0.0,meteohub,2013-02-16 10:31:00,
2013-02-16 03:36:00,21.0,7.7,30.43,WNW,297,12.0,31.0,56,0.00,,,0.00,0.0,meteohub,2013-02-16 10:36:00,
2013-02-16 03:42:00,21.0,7.7,30.43,NNW,337,14.0,31.0,56,0.00,,,0.00,0.0,meteohub,2013-02-16 10:42:00,
2013-02-16 03:47:00,21.4,7.7,30.42,NNE,16,4.0,31.0,55,0.00,,,0.00,0.0,meteohub,2013-02-16 10:47:00,
2013-02-16 03:52:00,21.4,7.7,30.42,NE,43,13.0,33.0,55,0.00,,,0.00,0.0,meteohub,2013-02-16 10:52:00,
2013-02-16 03:57:00,21.4,7.7,30.42,WNW,293,9.0,33.0,55,0.00,,,0.00,0.0,meteohub,2013-02-16 10:57:00,
2013-02-16 04:02:00,21.4,7.7,30.41,North,355,16.0,33.0,55,0.00,,,0.00,0.0,meteohub,2013-02-16 11:02:00,
2013-02-16 04:08:00,21.4,8.1,30.40,NW,313,16.0,31.0,56,0.00,,,0.00,0.0,meteohub,2013-02-16 11:08:00,
2013-02-16 04:13:00,21.6,7.9,30.40,NW,320,10.0,30.0,55,0.00,,,0.00,0.0,meteohub,2013-02-16 11:13:00,
2013-02-16 04:18:00,21.6,7.9,30.40,NW,314,12.0,38.0,55,0.00,,,0.00,0.0,meteohub,2013-02-16 11:18:00,
2013-02-16 04:23:00,21.7,8.1,30.39,NW,306,11.0,38.0,55,0.00,,,0.00,0.0,meteohub,2013-02-16 11:23:00,
2013-02-16 04:28:00,22.1,8.1,30.39,NW,312,10.0,30.0,54,0.00,,,0.00,0.0,meteohub,2013-02-16 11:28:00,
2013-02-16 04:34:00,21.9,7.9,30.38,NW,315,9.0,32.0,54,0.00,,,0.00,0.0,meteohub,2013-02-16 11:34:00,
2013-02-16 04:39:00,21.9,7.9,30.38,NNE,28,16.0,32.0,54,0.00,,,0.00,0.0,meteohub,2013-02-16 11:39:00,
2013-02-16 04:44:00,22.1,8.1,30.39,North,6,12.0,35.0,54,0.00,,,0.00,0.0,meteohub,2013-02-16 11:44:00,
2013-02-16 04:49:00,22.3,8.2,30.38,NNW,329,10.0,35.0,54,0.00,,,0.00,0.0,meteohub,2013-02-16 11:49:00,
2013-02-16 04:54:00,22.6,8.1,30.38,East,90,20.0,35.0,53,0.00,,,0.00,0.0,meteohub,2013-02-16 11:54:00,
2013-02-16 05:00:00,22.6,8.1,30.39,NW,312,15.0,33.0,53,0.00,,,0.00,0.0,meteohub,2013-02-16 12:00:00,
2013-02-16 05:05:00,22.6,8.1,30.39,NW,325,13.0,33.0,53,0.00,,,0.00,0.0,meteohub,2013-02-16 12:05:00,
2013-02-16 05:10:00,22.6,8.1,30.39,NNW,347,11.0,38.0,53,0.00,,,0.00,0.0,meteohub,2013-02-16 12:10:00,
2013-02-16 05:15:00,22.5,7.9,30.39,North,349,21.0,38.0,53,0.00,,,0.00,0.0,meteohub,2013-02-16 12:15:00,
2013-02-16 05:20:00,22.6,8.1,30.38,ENE,74,16.0,38.0,53,0.00,,,0.00,0.0,meteohub,2013-02-16 12:20:00,
2013-02-16 05:26:00,22.5,7.9,30.39,NW,320,12.0,35.0,53,0.00,,,0.00,0.0,meteohub,2013-02-16 12:26:00,
2013-02-16 05:31:00,22.3,7.7,30.38,NW,312,16.0,35.0,53,0.00,,,0.00,0.0,meteohub,2013-02-16 12:31:00,
2013-02-16 05:36:00,22.6,8.4,30.39,NNW,335,19.0,33.0,54,0.00,,,0.00,0.0,meteohub,2013-02-16 12:36:00,
2013-02-16 05:41:00,22.6,8.1,30.38,NW,326,19.0,33.0,53,0.00,,,0.00,0.0,meteohub,2013-02-16 12:41:00,
2013-02-16 05:46:00,22.8,8.2,30.38,NE,44,13.0,33.0,53,0.00,,,0.00,0.0,meteohub,2013-02-16 12:46:00,
2013-02-16 05:52:00,23.2,8.6,30.38,NW,324,13.0,33.0,53,0.00,,,0.00,0.0,meteohub,2013-02-16 12:52:00,
2013-02-16 05:57:00,23.4,8.4,30.37,NW,322,11.0,35.0,52,0.00,,,0.00,0.0,meteohub,2013-02-16 12:57:00,
2013-02-16 06:02:00,23.5,8.4,30.37,NW,324,24.0,35.0,52,0.00,,,0.00,0.0,meteohub,2013-02-16 13:02:00,
2013-02-16 06:07:00,23.7,8.2,30.37,NW,320,12.0,35.0,51,0.00,,,0.00,0.0,meteohub,2013-02-16 13:07:00,
2013-02-16 06:12:00,23.9,8.4,30.36,NW,318,20.0,29.0,51,0.00,,,0.00,0.0,meteohub,2013-02-16 13:12:00,
2013-02-16 06:18:00,23.9,8.4,30.36,WNW,303,13.0,29.0,51,0.00,,,0.00,0.0,meteohub,2013-02-16 13:18:00,
2013-02-16 06:23:00,23.7,8.2,30.36,NNW,341,20.0,30.0,51,0.00,,,0.00,0.0,meteohub,2013-02-16 13:23:00,
2013-02-16 06:28:00,23.7,8.2,30.36,NNW,327,14.0,30.0,51,0.00,,,0.00,0.0,meteohub,2013-02-16 13:28:00,
2013-02-16 06:33:00,23.9,8.4,30.38,NNW,327,16.0,29.0,51,0.00,,,0.00,0.0,meteohub,2013-02-16 13:33:00,
2013-02-16 06:38:00,24.1,8.6,30.37,NW,314,18.0,30.0,51,0.00,,,0.00,0.0,meteohub,2013-02-16 13:38:00,
2013-02-16 06:44:00,24.3,8.8,30.37,NNW,337,6.0,30.0,51,0.00,,,0.00,0.0,meteohub,2013-02-16 13:44:00,
2013-02-16 06:49:00,24.3,8.2,30.37,North,350,15.0,39.0,50,0.00,,,0.00,0.0,meteohub,2013-02-16 13:49:00,
2013-02-16 06:54:00,23.9,8.4,30.38,NNW,327,19.0,39.0,51,0.00,,,0.00,0.0,meteohub,2013-02-16 13:54:00,
2013-02-16 06:59:00,23.5,8.1,30.38,NNW,338,11.0,39.0,51,0.00,,,0.00,5.0,meteohub,2013-02-16 13:59:00,
2013-02-16 07:04:00,23.4,8.4,30.38,NNW,330,11.0,30.0,52,0.00,,,0.00,7.0,meteohub,2013-02-16 14:04:00,
2013-02-16 07:10:00,23.5,8.1,30.38,South,180,18.0,28.0,51,0.00,,,0.00,9.0,meteohub,2013-02-16 14:10:00,
2013-02-16 07:15:00,23.9,8.4,30.38,NNW,332,7.0,27.0,51,0.00,,,0.00,12.0,meteohub,2013-02-16 14:15:00,
2013-02-16 07:20:00,24.3,8.2,30.37,East,83,10.0,25.0,50,0.00,,,0.00,12.0,meteohub,2013-02-16 14:20:00,
2013-02-16 07:25:00,24.6,8.2,30.36,NW,310,7.0,26.0,49,0.00,,,0.00,14.0,meteohub,2013-02-16 14:25:00,
2013-02-16 07:30:00,25.2,8.2,30.36,NW,320,10.0,26.0,48,0.00,,,0.00,16.0,meteohub,2013-02-16 14:30:00,
2013-02-16 07:36:00,25.3,7.9,30.36,North,353,4.0,26.0,47,0.00,,,0.00,18.0,meteohub,2013-02-16 14:36:00,
2013-02-16 07:41:00,25.5,8.1,30.36,ENE,63,12.0,28.0,47,0.00,,,0.00,18.0,meteohub,2013-02-16 14:41:00,
2013-02-16 07:46:00,26.1,8.6,30.36,NNW,336,10.0,28.0,47,0.00,,,0.00,23.0,meteohub,2013-02-16 14:46:00,
2013-02-16 07:51:00,26.4,8.4,30.36,NE,44,14.0,31.0,46,0.00,,,0.00,19.0,meteohub,2013-02-16 14:51:00,
2013-02-16 07:56:00,26.8,8.2,30.36,NW,314,12.0,34.0,45,0.00,,,0.00,21.0,meteohub,2013-02-16 14:56:00,
2013-02-16 08:02:00,27.0,8.4,30.35,NNW,337,9.0,34.0,45,0.00,,,0.00,21.0,meteohub,2013-02-16 15:02:00,
2013-02-16 08:07:00,27.1,8.1,30.34,NNW,347,15.0,34.0,44,0.00,,,0.00,26.0,meteohub,2013-02-16 15:07:00,
2013-02-16 08:12:00,27.7,8.6,30.35,NE,41,10.0,30.0,44,0.00,,,0.00,30.0,meteohub,2013-02-16 15:12:00,
2013-02-16 08:17:00,27.9,8.2,30.35,North,8,10.0,39.0,43,0.00,,,0.00,35.0,meteohub,2013-02-16 15:17:00,
2013-02-16 08:22:00,28.0,8.4,30.35,WNW,299,11.0,39.0,43,0.00,,,0.00,33.0,meteohub,2013-02-16 15:22:00,
2013-02-16 08:28:00,28.4,8.2,30.35,NNW,343,14.0,39.0,42,0.00,,,0.00,56.0,meteohub,2013-02-16 15:28:00,
2013-02-16 08:33:00,28.6,8.4,30.34,NW,314,18.0,35.0,42,0.00,,,0.00,44.0,meteohub,2013-02-16 15:33:00,
2013-02-16 08:38:00,28.8,8.6,30.35,NW,326,20.0,35.0,42,0.00,,,0.00,325.0,meteohub,2013-02-16 15:38:00,
2013-02-16 08:43:00,28.9,8.2,30.34,ENE,70,13.0,40.0,41,0.00,,,0.00,244.0,meteohub,2013-02-16 15:43:00,
2013-02-16 08:48:00,29.1,8.4,30.34,South,180,14.0,40.0,41,0.00,,,0.00,104.0,meteohub,2013-02-16 15:48:00,
2013-02-16 08:54:00,29.5,8.6,30.34,NNW,346,9.0,40.0,41,0.00,,,0.00,35.0,meteohub,2013-02-16 15:54:00,
2013-02-16 08:59:00,29.5,8.1,30.34,NW,312,12.0,35.0,40,0.00,,,0.00,32.0,meteohub,2013-02-16 15:59:00,
2013-02-16 09:04:00,29.3,8.6,30.33,NNE,14,22.0,31.0,41,0.00,,,0.00,30.0,meteohub,2013-02-16 16:04:00,
2013-02-16 09:09:00,29.7,8.2,30.33,NW,323,15.0,31.0,40,0.00,,,0.00,28.0,meteohub,2013-02-16 16:09:00,
2013-02-16 09:14:00,29.7,8.2,30.33,North,358,16.0,31.0,40,0.00,,,0.00,28.0,meteohub,2013-02-16 16:14:00,
2013-02-16 09:19:00,29.8,7.9,30.34,NW,325,22.0,28.0,39,0.00,,,0.00,30.0,meteohub,2013-02-16 16:19:00,
2013-02-16 09:25:00,29.7,8.2,30.33,NNW,337,12.0,36.0,40,0.00,,,0.00,30.0,meteohub,2013-02-16 16:25:00,
2013-02-16 09:30:00,29.5,8.1,30.33,NW,315,23.0,36.0,40,0.00,,,0.00,51.0,meteohub,2013-02-16 16:30:00,
2013-02-16 09:35:00,29.7,8.2,30.33,NW,321,19.0,40.0,40,0.00,,,0.00,104.0,meteohub,2013-02-16 16:35:00,
2013-02-16 09:40:00,29.5,8.6,30.33,NW,319,12.0,32.0,41,0.00,,,0.00,42.0,meteohub,2013-02-16 16:40:00,
2013-02-16 09:45:00,29.5,8.6,30.34,NNW,339,8.0,32.0,41,0.00,,,0.00,40.0,meteohub,2013-02-16 16:45:00,
2013-02-16 09:50:00,29.8,8.4,30.32,North,359,8.0,31.0,40,0.00,,,0.00,30.0,meteohub,2013-02-16 16:50:00,
2013-02-16 09:56:00,29.8,7.9,30.33,NNE,25,10.0,31.0,39,0.00,,,0.00,30.0,meteohub,2013-02-16 16:56:00,
2013-02-16 10:01:00,30.4,8.4,30.33,North,8,10.0,31.0,39,0.00,,,0.00,67.0,meteohub,2013-02-16 17:01:00,
2013-02-16 10:06:00,30.4,9.0,30.34,NW,318,12.0,31.0,40,0.00,,,0.00,40.0,meteohub,2013-02-16 17:06:00,
2013-02-16 10:11:00,30.2,8.8,30.33,NW,322,12.0,30.0,40,0.00,,,0.00,42.0,meteohub,2013-02-16 17:11:00,
2013-02-16 10:16:00,30.0,9.1,30.33,North,355,8.0,30.0,41,0.00,,,0.00,54.0,meteohub,2013-02-16 17:16:00,
2013-02-16 10:21:00,30.0,9.7,30.33,NNE,24,6.0,27.0,42,0.00,,,0.00,232.0,meteohub,2013-02-16 17:21:00,
2013-02-16 10:27:00,30.4,9.0,30.34,ESE,108,13.0,27.0,40,0.00,,,0.00,35.0,meteohub,2013-02-16 17:27:00,
2013-02-16 10:32:00,30.7,9.3,30.33,NW,309,27.0,27.0,40,0.00,,,0.00,130.0,meteohub,2013-02-16 17:32:00,
2013-02-16 10:37:00,30.9,8.8,30.34,NW,326,4.0,32.0,39,0.00,,,0.00,67.0,meteohub,2013-02-16 17:37:00,
2013-02-16 10:42:00,31.3,9.1,30.34,NW,316,6.0,32.0,39,0.00,,,0.00,37.0,meteohub,2013-02-16 17:42:00,
2013-02-16 10:47:00,31.5,8.8,30.35,NW,311,10.0,32.0,38,0.00,,,0.00,35.0,meteohub,2013-02-16 17:47:00,
2013-02-16 10:52:00,31.5,8.8,30.35,NE,49,12.0,22.0,38,0.00,,,0.00,42.0,meteohub,2013-02-16 17:52:00,
2013-02-16 10:58:00,31.6,9.5,30.35,WNW,302,9.0,28.0,39,0.00,,,0.00,63.0,meteohub,2013-02-16 17:58:00,
2013-02-16 11:03:00,32.2,8.2,30.35,ENE,66,9.0,28.0,36,0.00,,,0.00,54.0,meteohub,2013-02-16 18:03:00,
2013-02-16 11:08:00,32.5,8.6,30.35,NW,319,10.0,30.0,36,0.00,,,0.00,158.0,meteohub,2013-02-16 18:08:00,
2013-02-16 11:13:00,32.4,9.5,30.35,NW,322,8.0,30.0,38,0.00,,,0.00,278.0,meteohub,2013-02-16 18:13:00,
2013-02-16 11:18:00,32.4,10.2,30.35,ENE,62,7.0,22.0,39,0.00,,,0.00,102.0,meteohub,2013-02-16 18:18:00,
2013-02-16 11:24:00,32.2,10.0,30.35,ENE,68,7.0,22.0,39,0.00,,,0.00,315.0,meteohub,2013-02-16 18:24:00,
2013-02-16 11:29:00,32.4,11.3,30.34,North,355,2.0,20.0,41,0.00,,,0.00,682.0,meteohub,2013-02-16 18:29:00,
2013-02-16 11:34:00,32.7,10.4,30.32,North,355,2.0,18.0,39,0.00,,,0.00,682.0,meteohub,2013-02-16 18:34:00,
2013-02-16 11:39:00,32.7,10.4,30.33,North,-999,-999.0,15.0,39,0.00,,,0.00,689.0,meteohub,2013-02-16 18:39:00,
2013-02-16 11:44:00,33.1,11.3,30.33,WNW,301,8.0,13.0,40,0.00,,,0.00,691.0,meteohub,2013-02-16 18:44:00,
2013-02-16 11:49:00,33.3,11.5,30.33,NW,308,6.0,15.0,40,0.00,,,0.00,691.0,meteohub,2013-02-16 18:49:00,
2013-02-16 11:55:00,33.4,11.7,30.32,WNW,301,6.0,21.0,40,0.00,,,0.00,694.0,meteohub,2013-02-16 18:55:00,
2013-02-16 12:00:00,33.6,11.3,30.32,East,97,6.0,21.0,39,0.00,,,0.00,694.0,meteohub,2013-02-16 19:00:00,
2013-02-16 12:05:00,33.6,10.8,30.31,NNE,26,8.0,24.0,38,0.00,,,0.00,696.0,meteohub,2013-02-16 19:05:00,
2013-02-16 12:10:00,33.8,11.5,30.30,NNE,19,7.0,28.0,39,0.00,,,0.00,694.0,meteohub,2013-02-16 19:10:00,
2013-02-16 12:15:00,33.4,12.2,30.30,NNE,19,7.0,28.0,41,0.00,,,0.00,694.0,meteohub,2013-02-16 19:15:00,
2013-02-16 12:21:00,33.4,12.2,30.30,NNW,342,8.0,20.0,41,0.00,,,0.00,696.0,meteohub,2013-02-16 19:21:00,
2013-02-16 12:26:00,33.3,12.0,30.30,NNW,335,10.0,29.0,41,0.00,,,0.00,693.0,meteohub,2013-02-16 19:26:00,
2013-02-16 12:31:00,33.3,12.0,30.30,NW,318,14.0,29.0,41,0.00,,,0.00,693.0,meteohub,2013-02-16 19:31:00,
2013-02-16 12:36:00,33.4,12.7,30.31,NW,318,14.0,29.0,42,0.00,,,0.00,687.0,meteohub,2013-02-16 19:36:00,
2013-02-16 12:41:00,33.6,12.9,30.31,NE,43,12.0,27.0,42,0.00,,,0.00,686.0,meteohub,2013-02-16 19:41:00,
2013-02-16 12:47:00,33.6,12.4,30.30,NNW,344,7.0,27.0,41,0.00,,,0.00,680.0,meteohub,2013-02-16 19:47:00,
2013-02-16 12:52:00,33.8,12.6,30.30,South,170,7.0,21.0,41,0.00,,,0.00,679.0,meteohub,2013-02-16 19:52:00,
2013-02-16 12:57:00,33.8,12.0,30.28,South,170,7.0,23.0,40,0.00,,,0.00,673.0,meteohub,2013-02-16 19:57:00,
2013-02-16 13:02:00,34.0,12.2,30.27,NE,45,7.0,23.0,40,0.00,,,0.00,671.0,meteohub,2013-02-16 20:02:00,
2013-02-16 13:07:00,33.8,12.0,30.26,NE,55,6.0,22.0,40,0.00,,,0.00,664.0,meteohub,2013-02-16 20:07:00,
2013-02-16 13:12:00,34.2,12.9,30.26,NW,320,6.0,24.0,41,0.00,,,0.00,659.0,meteohub,2013-02-16 20:12:00,
2013-02-16 13:18:00,34.3,12.0,30.26,WNW,294,16.0,24.0,39,0.00,,,0.00,652.0,meteohub,2013-02-16 20:18:00,
2013-02-16 13:23:00,34.5,11.5,30.25,East,79,5.0,24.0,38,0.00,,,0.00,647.0,meteohub,2013-02-16 20:23:00,
2013-02-16 13:28:00,34.3,10.8,30.24,NNE,17,13.0,21.0,37,0.00,,,0.00,638.0,meteohub,2013-02-16 20:28:00,
2013-02-16 13:33:00,34.2,11.1,30.23,NW,312,10.0,34.0,38,0.00,,,0.00,633.0,meteohub,2013-02-16 20:33:00,
2013-02-16 13:38:00,34.3,11.3,30.24,NNW,347,5.0,34.0,38,0.00,,,0.00,624.0,meteohub,2013-02-16 20:38:00,
2013-02-16 13:44:00,34.2,11.1,30.24,SSW,208,11.0,34.0,38,0.00,,,0.00,615.0,meteohub,2013-02-16 20:44:00,
2013-02-16 13:49:00,34.2,11.1,30.23,NW,316,7.0,29.0,38,0.00,,,0.00,605.0,meteohub,2013-02-16 20:49:00,
2013-02-16 13:54:00,34.3,11.3,30.23,NNW,336,4.0,29.0,38,0.00,,,0.00,596.0,meteohub,2013-02-16 20:54:00,
2013-02-16 13:59:00,34.2,11.8,30.22,NW,313,8.0,29.0,39,0.00,,,0.00,587.0,meteohub,2013-02-16 20:59:00,
2013-02-16 14:04:00,34.2,10.6,30.22,NW,318,14.0,29.0,37,0.00,,,0.00,578.0,meteohub,2013-02-16 21:04:00,
2013-02-16 14:10:00,34.2,11.1,30.22,North,349,7.0,30.0,38,0.00,,,0.00,566.0,meteohub,2013-02-16 21:10:00,
2013-02-16 14:15:00,34.5,10.9,30.22,NW,322,12.0,30.0,37,0.00,,,0.00,555.0,meteohub,2013-02-16 21:15:00,
2013-02-16 14:20:00,34.3,11.3,30.21,WNW,302,15.0,25.0,38,0.00,,,0.00,545.0,meteohub,2013-02-16 21:20:00,
2013-02-16 14:25:00,34.7,10.4,30.22,NNW,335,11.0,26.0,36,0.00,,,0.00,531.0,meteohub,2013-02-16 21:25:00,
2013-02-16 14:30:00,34.9,10.6,30.21,North,7,14.0,34.0,36,0.00,,,0.00,522.0,meteohub,2013-02-16 21:30:00,
2013-02-16 14:36:00,34.7,10.4,30.21,NNW,336,12.0,34.0,36,0.00,,,0.00,508.0,meteohub,2013-02-16 21:36:00,
2013-02-16 14:41:00,34.7,11.1,30.21,NNE,32,7.0,29.0,37,0.00,,,0.00,497.0,meteohub,2013-02-16 21:41:00,
2013-02-16 14:46:00,34.7,10.4,30.22,NE,44,6.0,29.0,36,0.00,,,0.00,483.0,meteohub,2013-02-16 21:46:00,
2013-02-16 14:51:00,34.5,10.2,30.22,NNW,337,19.0,29.0,36,0.00,,,0.00,471.0,meteohub,2013-02-16 21:51:00,
2013-02-16 14:56:00,34.3,10.2,30.22,North,351,6.0,28.0,36,0.00,,,0.00,459.0,meteohub,2013-02-16 21:56:00,
2013-02-16 15:02:00,34.3,10.8,30.23,ESE,123,6.0,32.0,37,0.00,,,0.00,443.0,meteohub,2013-02-16 22:02:00,
2013-02-16 15:07:00,34.3,10.8,30.24,East,91,11.0,32.0,37,0.00,,,0.00,431.0,meteohub,2013-02-16 22:07:00,
2013-02-16 15:12:00,34.0,10.4,30.24,East,98,6.0,27.0,37,0.00,,,0.00,413.0,meteohub,2013-02-16 22:12:00,
2013-02-16 15:17:00,33.6,10.0,30.24,NE,45,4.0,21.0,37,0.00,,,0.00,399.0,meteohub,2013-02-16 22:17:00,
2013-02-16 15:22:00,34.0,10.4,30.24,ESE,116,9.0,21.0,37,0.00,,,0.00,383.0,meteohub,2013-02-16 22:22:00,
2013-02-16 15:28:00,34.0,10.4,30.25,WSW,254,2.0,20.0,37,0.00,,,0.00,369.0,meteohub,2013-02-16 22:28:00,
2013-02-16 15:33:00,34.0,10.4,30.25,SE,139,6.0,16.0,37,0.00,,,0.00,353.0,meteohub,2013-02-16 22:33:00,
2013-02-16 15:38:00,34.3,10.8,30.25,East,85,0.0,15.0,37,0.00,,,0.00,338.0,meteohub,2013-02-16 22:38:00,
2013-02-16 15:43:00,34.3,10.2,30.24,East,84,2.0,12.0,36,0.00,,,0.00,322.0,meteohub,2013-02-16 22:43:00,
2013-02-16 15:48:00,34.3,10.2,30.24,East,93,4.0,12.0,36,0.00,,,0.00,306.0,meteohub,2013-02-16 22:48:00,
2013-02-16 15:54:00,34.3,9.5,30.23,ESE,104,4.0,15.0,35,0.00,,,0.00,288.0,meteohub,2013-02-16 22:54:00,
2013-02-16 15:59:00,34.3,9.5,30.23,ESE,112,5.0,15.0,35,0.00,,,0.00,269.0,meteohub,2013-02-16 22:59:00,
2013-02-16 16:04:00,34.3,10.2,30.24,ESE,112,5.0,15.0,36,0.00,,,0.00,248.0,meteohub,2013-02-16 23:04:00,
2013-02-16 16:09:00,34.3,10.2,30.23,SE,139,3.0,13.0,36,0.00,,,0.00,227.0,meteohub,2013-02-16 23:09:00,
2013-02-16 16:14:00,34.5,9.7,30.22,ESE,121,6.0,13.0,35,0.00,,,0.00,204.0,meteohub,2013-02-16 23:14:00,
2013-02-16 16:19:00,34.2,9.3,30.22,ESE,120,8.0,11.0,35,0.00,,,0.00,183.0,meteohub,2013-02-16 23:19:00,
2013-02-16 16:25:00,34.0,9.1,30.23,SE,131,5.0,11.0,35,0.00,,,0.00,158.0,meteohub,2013-02-16 23:25:00,
2013-02-16 16:30:00,34.3,9.5,30.23,SE,141,1.0,11.0,35,0.00,,,0.00,137.0,meteohub,2013-02-16 23:30:00,
2013-02-16 16:35:00,34.7,9.1,30.22,SE,141,2.0,11.0,34,0.00,,,0.00,118.0,meteohub,2013-02-16 23:35:00,
2013-02-16 16:40:00,34.9,9.3,30.22,NW,307,5.0,10.0,34,0.00,,,0.00,100.0,meteohub,2013-02-16 23:40:00,
2013-02-16 16:45:00,34.9,9.3,30.22,NW,308,5.0,10.0,34,0.00,,,0.00,83.0,meteohub,2013-02-16 23:45:00,
2013-02-16 16:51:00,34.3,8.2,30.21,South,180,5.0,10.0,33,0.00,,,0.00,65.0,meteohub,2013-02-16 23:51:00,
2013-02-16 16:56:00,33.8,8.4,30.22,NNE,29,0.0,9.0,34,0.00,,,0.00,47.0,meteohub,2013-02-16 23:56:00,
2013-02-16 17:01:00,33.4,8.1,30.21,NNE,24,2.0,9.0,34,0.00,,,0.00,25.0,meteohub,2013-02-17 00:01:00,
2013-02-16 17:06:00,33.1,7.7,30.21,SW,224,2.0,9.0,34,0.00,,,0.00,14.0,meteohub,2013-02-17 00:06:00,
2013-02-16 17:12:00,32.5,5.9,30.21,East,97,1.0,11.0,32,0.00,,,0.00,11.0,meteohub,2013-02-17 00:12:00,
2013-02-16 17:17:00,32.2,7.0,30.21,SSE,161,1.0,12.0,34,0.00,,,0.00,9.0,meteohub,2013-02-17 00:17:00,
2013-02-16 17:22:00,31.6,6.4,30.20,East,101,7.0,12.0,34,0.00,,,0.00,7.0,meteohub,2013-02-17 00:22:00,
2013-02-16 17:27:00,31.1,5.4,30.21,South,180,0.0,12.0,33,0.00,,,0.00,7.0,meteohub,2013-02-17 00:27:00,
2013-02-16 17:32:00,30.9,5.2,30.22,SW,216,2.0,10.0,33,0.00,,,0.00,5.0,meteohub,2013-02-17 00:32:00,
2013-02-16 17:38:00,30.9,5.2,30.22,SW,214,2.0,11.0,33,0.00,,,0.00,0.0,meteohub,2013-02-17 00:38:00,
2013-02-16 17:43:00,30.7,5.7,30.22,SSW,199,0.0,11.0,34,0.00,,,0.00,0.0,meteohub,2013-02-17 00:43:00,
2013-02-16 17:48:00,30.6,6.1,30.23,SSW,199,2.0,9.0,35,0.00,,,0.00,0.0,meteohub,2013-02-17 00:48:00,
2013-02-16 17:53:00,30.2,5.9,30.22,NNW,329,4.0,6.0,35,0.00,,,0.00,0.0,meteohub,2013-02-17 00:53:00,
2013-02-16 17:58:00,30.0,5.7,30.21,South,180,0.0,9.0,35,0.00,,,0.00,0.0,meteohub,2013-02-17 00:58:00,
2013-02-16 18:04:00,29.8,6.1,30.21,WNW,283,4.0,11.0,36,0.00,,,0.00,0.0,meteohub,2013-02-17 01:04:00,
2013-02-16 18:09:00,29.7,6.6,30.20,WNW,291,2.0,11.0,37,0.00,,,0.00,0.0,meteohub,2013-02-17 01:09:00,
2013-02-16 18:14:00,29.5,5.7,30.20,East,99,0.0,11.0,36,0.00,,,0.00,0.0,meteohub,2013-02-17 01:14:00,
2013-02-16 18:19:00,28.9,5.9,30.19,East,99,2.0,7.0,37,0.00,,,0.00,0.0,meteohub,2013-02-17 01:19:00,
2013-02-16 18:25:00,28.8,5.7,30.19,East,99,3.0,7.0,37,0.00,,,0.00,0.0,meteohub,2013-02-17 01:25:00,
2013-02-16 18:30:00,28.4,7.2,30.20,East,99,0.0,7.0,40,0.00,,,0.00,0.0,meteohub,2013-02-17 01:30:00,
2013-02-16 18:35:00,27.9,6.6,30.19,East,99,0.0,7.0,40,0.00,,,0.00,0.0,meteohub,2013-02-17 01:35:00,
2013-02-16 18:40:00,27.7,7.0,30.19,ESE,117,2.0,7.0,41,0.00,,,0.00,0.0,meteohub,2013-02-17 01:40:00,
2013-02-16 18:45:00,27.7,7.5,30.19,ENE,66,5.0,9.0,42,0.00,,,0.00,0.0,meteohub,2013-02-17 01:45:00,
2013-02-16 18:51:00,28.0,7.3,30.19,SE,133,2.0,10.0,41,0.00,,,0.00,0.0,meteohub,2013-02-17 01:51:00,
2013-02-16 18:56:00,28.6,7.3,30.19,SSE,155,1.0,13.0,40,0.00,,,0.00,0.0,meteohub,2013-02-17 01:56:00,
2013-02-16 19:01:00,28.8,7.5,30.19,ESE,104,4.0,13.0,40,0.00,,,0.00,0.0,meteohub,2013-02-17 02:01:00,
2013-02-16 19:06:00,28.8,7.5,30.19,ESE,114,7.0,13.0,40,0.00,,,0.00,0.0,meteohub,2013-02-17 02:06:00,
2013-02-16 19:11:00,28.9,7.2,30.18,East,85,0.0,13.0,39,0.00,,,0.00,0.0,meteohub,2013-02-17 02:11:00,
2013-02-16 19:17:00,28.9,8.2,30.18,SSE,150,0.0,8.0,41,0.00,,,0.00,0.0,meteohub,2013-02-17 02:17:00,
2013-02-16 19:22:00,28.8,8.6,30.18,SSE,149,0.0,7.0,42,0.00,,,0.00,0.0,meteohub,2013-02-17 02:22:00,
2013-02-16 19:27:00,28.8,8.6,30.17,SSE,149,0.0,6.0,42,0.00,,,0.00,0.0,meteohub,2013-02-17 02:27:00,
2013-02-16 19:32:00,28.4,8.2,30.18,SSE,151,1.0,6.0,42,0.00,,,0.00,0.0,meteohub,2013-02-17 02:32:00,
2013-02-16 19:37:00,28.2,8.6,30.18,SSW,207,4.0,5.0,43,0.00,,,0.00,0.0,meteohub,2013-02-17 02:37:00,
2013-02-16 19:43:00,28.2,9.1,30.18,SSW,207,6.0,6.0,44,0.00,,,0.00,0.0,meteohub,2013-02-17 02:43:00,
2013-02-16 19:48:00,28.0,7.9,30.17,SSW,207,2.0,6.0,42,0.00,,,0.00,0.0,meteohub,2013-02-17 02:48:00,
2013-02-16 19:53:00,28.2,7.5,30.18,SSW,210,2.0,6.0,41,0.00,,,0.00,0.0,meteohub,2013-02-17 02:53:00,
2013-02-16 19:58:00,28.2,8.1,30.18,SSW,208,2.0,6.0,42,0.00,,,0.00,0.0,meteohub,2013-02-17 02:58:00,
2013-02-16 20:03:00,28.0,7.3,30.18,SSW,208,5.0,5.0,41,0.00,,,0.00,0.0,meteohub,2013-02-17 03:03:00,
2013-02-16 20:09:00,28.0,7.9,30.18,SSW,208,1.0,5.0,42,0.00,,,0.00,0.0,meteohub,2013-02-17 03:09:00,
2013-02-16 20:14:00,27.7,8.1,30.17,SSW,208,4.0,5.0,43,0.00,,,0.00,0.0,meteohub,2013-02-17 03:14:00,
2013-02-16 20:19:00,27.5,8.4,30.17,SSW,208,0.0,5.0,44,0.00,,,0.00,0.0,meteohub,2013-02-17 03:19:00,
2013-02-16 20:24:00,27.3,8.2,30.17,SSW,208,0.0,6.0,44,0.00,,,0.00,0.0,meteohub,2013-02-17 03:24:00,
2013-02-16 20:29:00,27.5,8.4,30.16,SSW,212,2.0,6.0,44,0.00,,,0.00,0.0,meteohub,2013-02-17 03:29:00,
2013-02-16 20:35:00,27.9,8.8,30.17,SW,218,1.0,6.0,44,0.00,,,0.00,0.0,meteohub,2013-02-17 03:35:00,
2013-02-16 20:40:00,27.9,8.8,30.16,SW,218,0.0,7.0,44,0.00,,,0.00,0.0,meteohub,2013-02-17 03:40:00,
2013-02-16 20:45:00,27.7,8.6,30.16,South,185,0.0,7.0,44,0.00,,,0.00,0.0,meteohub,2013-02-17 03:45:00,
2013-02-16 20:50:00,27.9,8.8,30.16,South,185,3.0,7.0,44,0.00,,,0.00,0.0,meteohub,2013-02-17 03:50:00,
2013-02-16 20:55:00,27.7,8.6,30.15,SE,128,8.0,8.0,44,0.00,,,0.00,0.0,meteohub,2013-02-17 03:55:00,
2013-02-16 21:01:00,27.9,8.2,30.14,East,97,5.0,8.0,43,0.00,,,0.00,0.0,meteohub,2013-02-17 04:01:00,
2013-02-16 21:06:00,28.4,8.2,30.13,NW,316,6.0,20.0,42,0.00,,,0.00,0.0,meteohub,2013-02-17 04:06:00,
2013-02-16 21:11:00,28.9,7.7,30.12,NW,322,16.0,20.0,40,0.00,,,0.00,0.0,meteohub,2013-02-17 04:11:00,
2013-02-16 21:16:00,29.5,7.5,30.11,NW,308,13.0,26.0,39,0.00,,,0.00,0.0,meteohub,2013-02-17 04:16:00,
2013-02-16 21:21:00,29.3,6.8,30.11,NNW,328,14.0,26.0,38,0.00,,,0.00,0.0,meteohub,2013-02-17 04:21:00,
2013-02-16 21:27:00,29.3,6.8,30.10,WNW,298,13.0,28.0,38,0.00,,,0.00,0.0,meteohub,2013-02-17 04:27:00,
2013-02-16 21:32:00,29.1,6.6,30.11,North,-999,-999.0,28.0,38,0.00,,,0.00,0.0,meteohub,2013-02-17 04:32:00,
2013-02-16 21:37:00,28.9,6.4,30.11,NNW,328,15.0,28.0,38,0.00,,,0.00,0.0,meteohub,2013-02-17 04:37:00,
2013-02-16 21:42:00,28.9,7.2,30.10,NW,326,12.0,28.0,39,0.00,,,0.00,0.0,meteohub,2013-02-17 04:42:00,
2013-02-16 21:47:00,28.9,6.4,30.10,NNW,329,23.0,29.0,38,0.00,,,0.00,0.0,meteohub,2013-02-17 04:47:00,
2013-02-16 21:53:00,28.9,6.4,30.09,NW,306,24.0,31.0,38,0.00,,,0.00,0.0,meteohub,2013-02-17 04:53:00,
2013-02-16 21:58:00,28.9,6.4,30.10,NW,322,22.0,31.0,38,0.00,,,0.00,0.0,meteohub,2013-02-17 04:58:00,
2013-02-16 22:00:00,28.9,7.2,30.09,NNW,332,18.0,39.0,39,0.00,,,0.00,0.0,meteohub,2013-02-17 05:00:00,
2013-02-16 22:01:00,28.8,7.0,30.10,NNW,339,19.0,39.0,39,0.00,,,0.00,0.0,meteohub,2013-02-17 05:01:00,
2013-02-16 22:02:00,28.8,7.0,30.10,NW,316,16.0,39.0,39,0.00,,,0.00,0.0,meteohub,2013-02-17 05:02:00,
2013-02-16 22:07:00,28.8,7.0,30.10,NNW,345,19.0,39.0,39,0.00,,,0.00,0.0,meteohub,2013-02-17 05:07:00,
2013-02-16 22:12:00,28.6,7.3,30.11,NW,319,15.0,36.0,40,0.00,,,0.00,0.0,meteohub,2013-02-17 05:12:00,
2013-02-16 22:17:00,28.2,7.0,30.12,NW,324,11.0,36.0,40,0.00,,,0.00,0.0,meteohub,2013-02-17 05:17:00,
2013-02-16 22:22:00,28.0,6.8,30.11,NNW,343,10.0,36.0,40,0.00,,,0.00,0.0,meteohub,2013-02-17 05:22:00,
2013-02-16 22:28:00,28.2,6.4,30.11,NW,319,19.0,25.0,39,0.00,,,0.00,0.0,meteohub,2013-02-17 05:28:00,
2013-02-16 22:33:00,28.6,6.3,30.11,NW,308,12.0,25.0,38,0.00,,,0.00,0.0,meteohub,2013-02-17 05:33:00,
2013-02-16 22:38:00,28.6,6.3,30.11,NW,324,11.0,26.0,38,0.00,,,0.00,0.0,meteohub,2013-02-17 05:38:00,
2013-02-16 22:43:00,28.6,6.3,30.11,NW,313,14.0,26.0,38,0.00,,,0.00,0.0,meteohub,2013-02-17 05:43:00,
2013-02-16 22:48:00,28.6,6.3,30.11,NNW,328,2.0,21.0,38,0.00,,,0.00,0.0,meteohub,2013-02-17 05:48:00,
2013-02-16 22:53:00,28.6,6.3,30.11,NW,312,10.0,24.0,38,0.00,,,0.00,0.0,meteohub,2013-02-17 05:53:00,
2013-02-16 22:59:00,28.6,6.3,30.11,NW,312,9.0,24.0,38,0.00,,,0.00,0.0,meteohub,2013-02-17 05:59:00,
2013-02-16 23:04:00,28.4,6.1,30.11,NW,318,7.0,24.0,38,0.00,,,0.00,0.0,meteohub,2013-02-17 06:04:00,
2013-02-16 23:09:00,28.2,5.9,30.10,NW,310,8.0,21.0,38,0.00,,,0.00,0.0,meteohub,2013-02-17 06:09:00,
2013-02-16 23:14:00,27.9,6.1,30.10,NNW,336,4.0,21.0,39,0.00,,,0.00,0.0,meteohub,2013-02-17 06:14:00,
2013-02-16 23:19:00,27.7,5.9,30.09,NNW,328,1.0,20.0,39,0.00,,,0.00,0.0,meteohub,2013-02-17 06:19:00,
2013-02-16 23:25:00,27.9,5.5,30.09,NW,310,2.0,15.0,38,0.00,,,0.00,0.0,meteohub,2013-02-17 06:25:00,
2013-02-16 23:30:00,28.0,5.7,30.09,NW,310,0.0,13.0,38,0.00,,,0.00,0.0,meteohub,2013-02-17 06:30:00,
2013-02-16 23:35:00,27.7,4.8,30.08,North,-999,-999.0,11.0,37,0.00,,,0.00,0.0,meteohub,2013-02-17 06:35:00,
2013-02-16 23:40:00,27.7,5.4,30.08,NNW,337,3.0,6.0,38,0.00,,,0.00,0.0,meteohub,2013-02-17 06:40:00,
2013-02-16 23:46:00,28.0,5.7,30.07,ENE,74,10.0,12.0,38,0.00,,,0.00,0.0,meteohub,2013-02-17 06:46:00,
2013-02-16 23:51:00,28.4,5.4,30.06,NW,311,9.0,15.0,37,0.00,,,0.00,0.0,meteohub,2013-02-17 06:51:00,
2013-02-16 23:56:00,28.4,5.4,30.06,NNW,341,9.0,20.0,37,0.00,,,0.00,0.0,meteohub,2013-02-17 06:56:00,